createdAt,value
2024-02-24T00:00:25.913Z,98264.75
2024-02-24T00:05:28.487Z,98269.06
2024-02-24T00:10:29.904Z,98268.63
2024-02-24T00:15:31.522Z,98279.81
2024-02-24T00:20:33.087Z,98282.81
2024-02-24T00:25:35.524Z,98269.06
2024-02-24T00:30:37.699Z,98269.22
2024-02-24T00:35:40.313Z,98271.41
2024-02-24T00:40:43.823Z,98270.50
2024-02-24T00:45:45.506Z,98284.94
2024-02-24T00:50:46.956Z,98291.59
2024-02-24T00:55:49.354Z,98289.47
2024-02-24T01:00:50.998Z,98275.50
2024-02-24T01:05:52.662Z,98305.38
2024-02-24T01:10:54.008Z,98286.28
2024-02-24T01:15:55.554Z,98291.00
2024-02-24T01:20:57.528Z,98247.44
2024-02-24T01:25:58.985Z,98281.59
2024-02-24T01:31:00.291Z,98299.41
2024-02-24T01:36:02.344Z,98307.59
2024-02-24T01:41:04.076Z,98305.50
2024-02-24T01:46:07.733Z,98298.69
2024-02-24T01:51:16.130Z,98291.47
2024-02-24T01:56:19.203Z,98302.41
2024-02-24T02:01:20.731Z,98306.59
2024-02-24T02:06:23.627Z,98310.28
2024-02-24T02:11:25.564Z,98307.84
2024-02-24T02:16:27.212Z,98309.91
2024-02-24T02:21:32.885Z,98305.44
2024-02-24T02:26:34.269Z,98310.28
2024-02-24T02:31:35.755Z,98311.47
2024-02-24T02:36:37.120Z,98307.41
2024-02-24T02:41:38.656Z,98309.38
2024-02-24T02:46:42.787Z,98317.69
2024-02-24T02:51:44.881Z,98317.09
2024-02-24T02:56:46.533Z,98321.25
2024-02-24T03:01:49.684Z,98320.44
2024-02-24T03:06:51.174Z,98327.91
2024-02-24T03:11:52.790Z,98320.59
2024-02-24T03:16:55.181Z,98333.56
2024-02-24T03:22:02.949Z,98343.63
2024-02-24T03:27:04.470Z,98331.38
2024-02-24T03:32:07.527Z,98338.81
2024-02-24T03:37:08.914Z,98344.91
2024-02-24T03:42:11.345Z,98354.81
2024-02-24T03:47:12.802Z,98351.47
2024-02-24T03:52:14.131Z,98357.91
2024-02-24T03:57:15.732Z,98354.78
2024-02-24T04:02:17.336Z,98342.25
2024-02-24T04:07:19.788Z,98359.66
2024-02-24T04:12:21.183Z,98358.41
2024-02-24T04:17:22.812Z,98369.44
2024-02-24T04:22:24.249Z,98361.09
2024-02-24T04:27:25.579Z,98381.53
2024-02-24T04:32:28.409Z,98373.88
2024-02-24T04:37:31.848Z,98376.66
2024-02-24T04:42:33.231Z,98377.03
2024-02-24T04:47:37.686Z,98352.91
2024-02-24T04:52:39.104Z,98361.25
2024-02-24T04:57:40.480Z,98365.97
2024-02-24T05:02:41.883Z,98386.13
2024-02-24T05:07:43.402Z,98397.00
2024-02-24T05:12:52.604Z,98403.84
2024-02-24T05:17:54.094Z,98413.84
2024-02-24T05:22:55.620Z,98413.84
2024-02-24T05:28:00.413Z,98421.78
2024-02-24T05:33:02.190Z,98398.56
2024-02-24T05:38:03.773Z,98395.06
2024-02-24T05:43:05.126Z,98407.78
2024-02-24T05:48:06.953Z,98425.03
2024-02-24T05:53:10.833Z,98453.69
2024-02-24T05:58:16.032Z,98452.56
2024-02-24T06:03:18.073Z,98448.06
2024-02-24T06:08:19.657Z,98453.78
2024-02-24T06:13:21.314Z,98456.56
2024-02-24T06:18:24.642Z,98460.47
2024-02-24T06:23:26.333Z,98469.94
2024-02-24T06:28:28.472Z,98448.22
2024-02-24T06:33:31.399Z,98473.78
2024-02-24T06:38:33.258Z,98483.69
2024-02-24T06:43:34.699Z,98492.06
2024-02-24T06:48:36.836Z,98494.13
2024-02-24T06:53:38.415Z,98496.94
2024-02-24T06:58:40.452Z,98512.94
2024-02-24T07:03:44.216Z,98509.31
2024-02-24T07:08:46.904Z,98521.00
2024-02-24T07:13:48.665Z,98512.38
2024-02-24T07:18:50.166Z,98531.00
2024-02-24T07:23:53.483Z,98539.09
2024-02-24T07:28:56.082Z,98536.34
2024-02-24T07:33:58.852Z,98557.59
2024-02-24T07:39:00.326Z,98562.50
2024-02-24T07:44:05.471Z,98558.44
2024-02-24T07:49:07.952Z,98584.19
2024-02-24T07:54:09.456Z,98597.25
2024-02-24T07:59:11.128Z,98597.84
2024-02-24T08:04:12.726Z,98603.09
2024-02-24T08:09:14.033Z,98592.25
2024-02-24T08:14:15.512Z,98596.38
2024-02-24T08:19:16.933Z,98600.56
2024-02-24T08:24:18.262Z,98615.06
2024-02-24T08:29:19.586Z,98607.28
2024-02-24T08:34:21.207Z,98622.75
2024-02-24T08:39:23.639Z,98629.56
2024-02-24T08:44:25.014Z,98647.66
2024-02-24T08:49:27.753Z,98651.00
2024-02-24T08:54:29.525Z,98659.88
2024-02-24T08:59:31.459Z,98677.97
2024-02-24T09:04:32.886Z,98673.94
2024-02-24T09:09:34.906Z,98684.25
2024-02-24T09:14:36.264Z,98679.81
2024-02-24T09:19:37.812Z,98690.94
2024-02-24T09:24:39.441Z,98685.22
2024-02-24T09:29:41.030Z,98708.03
2024-02-24T09:34:44.188Z,98711.38
2024-02-24T09:39:45.519Z,98732.81
2024-02-24T09:44:48.544Z,98731.94
2024-02-24T09:49:52.037Z,98735.63
2024-02-24T09:54:53.443Z,98753.50
2024-02-24T09:59:58.468Z,98777.44
2024-02-24T10:04:59.996Z,98784.38
2024-02-24T10:10:04.388Z,98780.25
2024-02-24T10:15:07.014Z,98786.50
2024-02-24T10:20:09.812Z,98790.47
2024-02-24T10:25:12.550Z,98774.66
2024-02-24T10:30:14.757Z,98795.72
2024-02-24T10:35:16.999Z,98782.91
2024-02-24T10:40:20.737Z,98809.75
2024-02-24T10:45:23.037Z,98803.50
2024-02-24T10:50:24.760Z,98810.69
2024-02-24T10:55:27.533Z,98814.38
2024-02-24T11:00:33.191Z,98812.63
2024-02-24T11:05:36.249Z,98832.91
2024-02-24T11:10:41.433Z,98829.06
2024-02-24T11:15:42.933Z,98832.13
2024-02-24T11:20:44.275Z,98825.13
2024-02-24T11:25:45.961Z,98841.78
2024-02-24T11:30:58.330Z,98782.38
2024-02-24T11:36:02.454Z,98863.97
2024-02-24T11:41:05.360Z,98858.66
2024-02-24T11:46:07.047Z,98854.97
2024-02-24T11:51:08.475Z,98843.13
2024-02-24T11:56:09.930Z,98825.97
2024-02-24T12:01:15.929Z,98838.72
2024-02-24T12:06:18.493Z,98844.31
2024-02-24T12:11:21.334Z,98820.94
2024-02-24T12:16:25.331Z,98833.38
2024-02-24T12:21:29.007Z,98839.78
2024-02-24T12:26:30.746Z,98831.72
2024-02-24T12:31:32.346Z,98831.47
2024-02-24T12:36:34.162Z,98834.78
2024-02-24T12:41:35.469Z,98830.81
2024-02-24T12:46:37.225Z,98809.50
2024-02-24T12:51:39.315Z,98847.06
2024-02-24T12:56:40.833Z,98845.06
2024-02-24T13:01:43.513Z,98840.34
2024-02-24T13:06:45.361Z,98845.94
2024-02-24T13:11:51.628Z,98814.59
2024-02-24T13:16:53.179Z,98849.88
2024-02-24T13:21:54.480Z,98850.72
2024-02-24T13:26:56.117Z,98848.63
2024-02-24T13:31:58.866Z,98860.88
2024-02-24T13:37:00.246Z,98860.91
2024-02-24T13:42:02.298Z,98868.25
2024-02-24T13:47:04.065Z,98871.34
2024-02-24T13:52:06.580Z,98876.13
2024-02-24T13:57:08.629Z,98863.88
2024-02-24T14:02:10.264Z,98880.63
2024-02-24T14:07:15.486Z,98872.69
2024-02-24T14:12:17.102Z,98888.25
2024-02-24T14:17:18.711Z,98890.66
2024-02-24T14:22:20.036Z,98915.88
2024-02-24T14:27:22.113Z,98896.38
2024-02-24T14:32:23.595Z,98906.34
2024-02-24T14:37:25.042Z,98889.50
2024-02-24T14:42:26.332Z,98898.25
2024-02-24T14:47:29.701Z,98902.16
2024-02-24T14:52:31.979Z,98889.53
2024-02-24T14:57:33.500Z,98898.63
2024-02-24T15:02:46.088Z,98902.03
2024-02-24T15:07:56.503Z,98910.03
2024-02-24T15:12:58.771Z,98908.22
2024-02-24T15:18:03.797Z,98901.22
2024-02-24T15:23:07.463Z,98903.38
2024-02-24T15:28:08.822Z,98899.13
2024-02-24T15:33:10.336Z,98909.75
2024-02-24T15:38:11.680Z,98923.03
2024-02-24T15:43:13.070Z,98929.41
2024-02-24T15:48:14.476Z,98916.75
2024-02-24T15:53:16.021Z,98909.25
2024-02-24T15:58:17.403Z,98936.63
2024-02-24T16:03:19.191Z,98940.09
2024-02-24T16:08:20.723Z,98957.34
2024-02-24T16:13:22.418Z,98946.88
2024-02-24T16:18:23.941Z,98945.44
2024-02-24T16:23:25.955Z,98960.16
2024-02-24T16:28:27.529Z,98959.34
2024-02-24T16:33:29.092Z,98967.22
2024-02-24T16:38:32.021Z,98969.88
2024-02-24T16:43:33.572Z,98970.31
2024-02-24T16:48:35.058Z,98973.97
2024-02-24T16:53:36.618Z,98981.28
2024-02-24T16:58:38.738Z,98986.22
2024-02-24T17:03:40.248Z,98989.94
2024-02-24T17:08:42.705Z,99006.59
2024-02-24T17:13:43.988Z,99013.63
2024-02-24T17:18:45.906Z,99018.63
2024-02-24T17:23:48.657Z,99008.31
2024-02-24T17:28:51.169Z,99024.00
2024-02-24T17:33:53.534Z,99033.25
2024-02-24T17:38:55.072Z,99069.69
2024-02-24T17:43:57.070Z,99058.66
2024-02-24T17:49:00.417Z,99055.00
2024-02-24T17:54:02.580Z,99047.03
2024-02-24T17:59:03.945Z,99061.41
2024-02-24T18:04:05.501Z,99061.00
2024-02-24T18:09:06.953Z,99053.72
2024-02-24T18:14:08.437Z,99068.06
2024-02-24T18:19:10.973Z,99073.09
2024-02-24T18:24:12.911Z,99076.13
2024-02-24T18:29:14.226Z,99079.47
2024-02-24T18:34:17.344Z,99076.13
2024-02-24T18:39:18.876Z,99079.47
2024-02-24T18:44:20.564Z,99068.84
2024-02-24T18:49:22.638Z,99080.81
2024-02-24T18:54:24.290Z,99086.94
2024-02-24T18:59:26.265Z,99087.88
2024-02-24T19:04:27.904Z,99100.28
2024-02-24T19:09:29.206Z,99106.69
2024-02-24T19:14:30.548Z,99100.03
2024-02-24T19:19:32.077Z,99107.84
2024-02-24T19:24:33.691Z,99110.47
2024-02-24T19:29:35.127Z,99117.34
2024-02-24T19:34:37.515Z,99124.97
2024-02-24T19:39:39.319Z,99120.13
2024-02-24T19:44:43.077Z,99115.44
2024-02-24T19:49:45.200Z,99115.16
2024-02-24T19:54:49.379Z,99112.50
2024-02-24T19:59:51.201Z,99104.50
2024-02-24T20:04:52.657Z,99106.75
2024-02-24T20:09:54.681Z,99120.13
2024-02-24T20:14:56.203Z,99114.22
2024-02-24T20:19:57.814Z,99125.91
2024-02-24T20:24:59.369Z,99104.00
2024-02-24T20:30:02.801Z,99111.97
2024-02-24T20:35:05.524Z,99113.06
2024-02-24T20:40:09.103Z,99111.41
2024-02-24T20:45:11.595Z,99116.84
2024-02-24T20:50:13.388Z,99115.09
2024-02-24T20:55:14.802Z,99112.56
2024-02-24T21:00:18.932Z,99124.47
2024-02-24T21:05:20.338Z,99107.75
2024-02-24T21:10:23.958Z,99114.25
2024-02-24T21:15:25.667Z,99121.94
2024-02-24T21:20:27.162Z,99134.91
2024-02-24T21:25:30.497Z,99113.31
2024-02-24T21:30:31.826Z,99089.16
2024-02-24T21:35:35.795Z,99110.72
2024-02-24T21:40:37.494Z,99116.22
2024-02-24T21:45:43.398Z,99113.84
2024-02-24T21:50:45.078Z,99109.75
2024-02-24T21:55:46.649Z,99111.63
2024-02-24T22:00:50.177Z,99108.44
2024-02-24T22:05:51.832Z,99114.69
2024-02-24T22:10:53.319Z,99116.38
2024-02-24T22:15:57.052Z,99103.44
2024-02-24T22:20:58.460Z,99110.44
2024-02-24T22:25:59.859Z,99109.00
2024-02-24T22:31:02.718Z,99115.00
2024-02-24T22:36:06.033Z,99112.72
2024-02-24T22:41:08.413Z,99109.03
2024-02-24T22:46:10.736Z,99102.16
2024-02-24T22:51:12.065Z,99112.47
2024-02-24T22:56:13.743Z,99111.91
2024-02-24T23:01:17.983Z,99102.09
2024-02-24T23:06:19.599Z,99100.16
2024-02-24T23:11:29.912Z,99105.78
2024-02-24T23:16:37.932Z,99096.06
2024-02-24T23:21:41.302Z,99111.25
2024-02-24T23:26:45.296Z,99107.91
2024-02-24T23:31:46.657Z,99107.91
2024-02-24T23:36:49.222Z,99101.69
2024-02-24T23:41:53.590Z,99095.66
2024-02-24T23:46:56.513Z,99103.81
2024-02-24T23:51:58.353Z,99103.00
2024-02-24T23:56:59.829Z,99101.34
